Airfield :
LOGIN :

Register | Disclaimer

   EN    FR    IT 

 










Legend :    VFR   Marginal VFR   IFR   Intensive IFR   Very Intensive IFR
Visi :
Ceiling :
>= 8 km
>= 3000ft
5 to 8 km
1000 to 3000 ft
1500m to 5 km
500 to 1000 ft
800 to 1500m
200 to 500 ft
< 800m
< 200 ft
Symbols :   Thunderstorms  Fog  Heavy snow  Heavy precipitations  Wind > 20 kt
SIGMETs :     Misc.  Thunderstorms  Icing  Turbulence  Mountain Waves  Volcanic Ashes






- Airport Elevation : 1367 ft
- IATA code : FDH


EDNY - Friedrichshafen

CURRENT METAR :
  • 032320Z AUTO 27004KT 230V320 9999 // FEW022/// SCT062/// OVC070/// 13/13 Q1012

EXPIRED METARs :
  • 032250Z AUTO VRB02KT 9999 // FEW014/// SCT018/// OVC045/// 14/13 Q1012
  • 032220Z AUTO 32003KT 290V010 9999 // FEW012/// SCT016/// OVC024/// 14/13 Q1012
  • 032150Z AUTO VRB02KT 9999 // FEW006/// BKN031/// OVC077/// 13/13 Q1012
  • 032120Z AUTO VRB02KT 9999 // FEW008/// BKN014/// OVC037/// 13/13 Q1012
  • 032050Z AUTO 26004KT 6000 // FEW008/// SCT011/// OVC026/// 13/13 Q1012

TAF TAF EDNY
Valid from the 04 at 00:00 until the 05 at 00:00 UTC


032300Z 0400/0424 32005KT 8000 SCT010 BKN020
TEMPO 0400/0408 4000 -RA BR BKN010
BECMG 0411/0413 23005KT
BECMG 0416/0418 04005KT



MET'MAP, your aeronautical weather chart ! - Copyright ORBIFLY December 2007 - Disclaimer

ORBIFLY MET'MAP TEAM :

Programming & Development : Alexandra Zaïnal
Concept & original design : Baudouin d'Aumeries
Assistance for programming : Marc-Olivier Méhu
Technical & hardware support : Manuel Goepfert

Contact : metmap@orbifly.com




SOURCES & CREDITS :

   NOAA